createdAt,value
2019-04-09T00:01:24.149Z,97154.30
2019-04-09T00:03:24.999Z,97152.67
2019-04-09T00:05:27.462Z,97155.25
2019-04-09T00:07:28.579Z,97150.16
2019-04-09T00:09:29.503Z,97148.08
2019-04-09T00:11:31.117Z,97144.68
2019-04-09T00:13:32.712Z,97148.00
2019-04-09T00:15:34.332Z,97145.14
2019-04-09T00:17:36.060Z,97147.33
2019-04-09T00:19:37.628Z,97152.91
2019-04-09T00:21:39.334Z,97151.63
2019-04-09T00:23:40.887Z,97146.64
2019-04-09T00:25:42.646Z,97146.39
2019-04-09T00:27:45.024Z,97149.95
2019-04-09T00:29:46.356Z,97152.50
2019-04-09T00:31:47.555Z,97152.31
2019-04-09T00:33:49.145Z,97153.33
2019-04-09T00:35:50.822Z,97153.19
2019-04-09T00:37:52.451Z,97162.78
2019-04-09T00:39:54.155Z,97161.85
2019-04-09T00:41:56.188Z,97159.17
2019-04-09T00:43:57.484Z,97162.07
2019-04-09T00:45:59.116Z,97166.33
2019-04-09T00:48:00.741Z,97156.53
2019-04-09T00:50:02.915Z,97160.01
2019-04-09T00:52:04.131Z,97161.39
2019-04-09T00:54:05.708Z,97152.06
2019-04-09T00:56:09.060Z,97151.64
2019-04-09T00:58:09.899Z,97167.60
2019-04-09T01:00:10.713Z,97166.05
2019-04-09T01:02:12.301Z,97162.19
2019-04-09T01:04:13.879Z,97162.51
2019-04-09T01:06:16.584Z,97164.97
2019-04-09T01:08:17.169Z,97163.69
2019-04-09T01:10:18.796Z,97164.11
2019-04-09T01:12:20.591Z,97164.63
2019-04-09T01:14:22.079Z,97160.81
2019-04-09T01:16:24.131Z,97161.00
2019-04-09T01:18:25.349Z,97170.19
2019-04-09T01:20:26.944Z,97164.78
2019-04-09T01:22:28.698Z,97166.45
2019-04-09T01:24:35.672Z,97152.46
2019-04-09T01:26:36.380Z,97160.34
2019-04-09T01:28:37.972Z,97159.28
2019-04-09T01:30:48.172Z,97159.05
2019-04-09T01:32:50.248Z,97160.89
2019-04-09T01:34:54.852Z,97158.97
2019-04-09T01:37:02.236Z,97163.19
2019-04-09T01:39:08.313Z,97162.77
2019-04-09T01:41:15.615Z,97165.45
2019-04-09T01:43:32.985Z,97160.45
2019-04-09T01:45:35.336Z,97164.31
2019-04-09T01:47:37.201Z,97160.11
2019-04-09T01:49:42.278Z,97157.69
2019-04-09T01:51:55.765Z,97158.35
2019-04-09T01:54:15.050Z,97158.03
2019-04-09T01:56:19.774Z,97158.97
2019-04-09T01:58:38.318Z,97165.23
2019-04-09T02:00:44.681Z,97169.86
2019-04-09T02:02:46.356Z,97168.46
2019-04-09T02:05:02.825Z,97168.22
2019-04-09T02:07:05.961Z,97172.28
2019-04-09T02:09:25.376Z,97171.64
2019-04-09T02:11:36.255Z,97174.84
2019-04-09T02:13:41.356Z,97174.26
2019-04-09T02:15:52.516Z,97181.39
2019-04-09T02:17:59.511Z,97175.00
2019-04-09T02:20:06.405Z,97171.92
2019-04-09T02:22:13.794Z,97170.27
2019-04-09T02:24:15.881Z,97176.20
2019-04-09T02:26:31.564Z,97181.31
2019-04-09T02:28:38.721Z,97175.12
2019-04-09T02:30:55.369Z,97181.00
2019-04-09T02:33:01.495Z,97175.05
2019-04-09T02:35:08.651Z,97175.88
2019-04-09T02:37:17.213Z,97183.14
2019-04-09T02:39:27.449Z,97187.09
2019-04-09T02:41:29.865Z,97178.56
2019-04-09T02:43:35.005Z,97177.28
2019-04-09T02:45:38.133Z,97177.72
2019-04-09T02:47:41.119Z,97178.58
2019-04-09T02:49:43.512Z,97181.12
2019-04-09T02:52:00.275Z,97179.91
2019-04-09T02:54:02.776Z,97177.72
2019-04-09T02:56:07.742Z,97183.44
2019-04-09T02:58:24.774Z,97182.96
2019-04-09T03:00:41.891Z,97182.16
2019-04-09T03:02:44.025Z,97180.50
2019-04-09T03:04:45.552Z,97177.95
2019-04-09T03:06:50.434Z,97183.03
2019-04-09T03:08:53.616Z,97187.66
2019-04-09T03:11:10.308Z,97186.86
2019-04-09T03:13:12.164Z,97191.02
2019-04-09T03:15:13.718Z,97198.61
2019-04-09T03:17:35.685Z,97187.94
2019-04-09T03:19:51.767Z,97190.91
2019-04-09T03:22:09.834Z,97196.45
2019-04-09T03:24:11.461Z,97193.49
2019-04-09T03:26:29.835Z,97196.45
2019-04-09T03:28:37.298Z,97199.84
2019-04-09T03:30:55.232Z,97195.41
2019-04-09T03:33:13.513Z,97199.11
2019-04-09T03:35:19.105Z,97196.89
2019-04-09T03:37:26.623Z,97199.16
2019-04-09T03:39:33.696Z,97199.31
2019-04-09T03:41:41.202Z,97201.79
2019-04-09T03:43:45.136Z,97162.39
2019-04-09T03:45:49.536Z,97196.11
2019-04-09T03:47:52.774Z,97201.64
2019-04-09T03:50:13.019Z,97198.17
2019-04-09T03:52:20.443Z,97203.78
2019-04-09T03:54:22.810Z,97205.97
2019-04-09T03:56:25.936Z,97206.15
2019-04-09T03:58:32.631Z,97208.33
2019-04-09T04:00:43.207Z,97209.25
2019-04-09T04:02:47.049Z,97216.02
2019-04-09T04:04:50.404Z,97209.66
2019-04-09T04:07:06.682Z,97214.39
2019-04-09T04:09:23.882Z,97209.88
2019-04-09T04:11:29.671Z,97209.51
2019-04-09T04:13:31.096Z,97211.33
2019-04-09T04:15:34.789Z,97213.13
2019-04-09T04:17:52.398Z,97213.68
2019-04-09T04:20:09.303Z,97208.71
2019-04-09T04:22:17.291Z,97209.64
2019-04-09T04:24:24.861Z,97210.87
2019-04-09T04:26:28.726Z,97217.16
2019-04-09T04:28:35.016Z,97214.94
2019-04-09T04:30:32.424Z,97210.13
2019-04-09T04:32:38.632Z,97214.80
2019-04-09T04:34:56.074Z,97221.54
2019-04-09T04:37:18.541Z,97218.23
2019-04-09T04:39:26.472Z,97222.28
2019-04-09T04:41:30.187Z,97225.14
2019-04-09T04:43:35.801Z,97221.39
2019-04-09T04:45:40.399Z,97226.39
2019-04-09T04:47:48.584Z,97228.04
2019-04-09T04:49:51.776Z,97232.18
2019-04-09T04:52:00.323Z,97226.63
2019-04-09T04:54:10.027Z,97233.55
2019-04-09T04:56:26.496Z,97231.91
2019-04-09T04:58:42.114Z,97238.23
2019-04-09T05:00:49.655Z,97239.94
2019-04-09T05:02:51.364Z,97235.16
2019-04-09T05:05:00.420Z,97247.53
2019-04-09T05:07:02.068Z,97243.25
2019-04-09T05:09:03.719Z,97242.76
2019-04-09T05:11:11.137Z,97243.50
2019-04-09T05:13:14.417Z,97248.70
2019-04-09T05:15:15.990Z,97244.86
2019-04-09T05:17:26.776Z,97252.00
2019-04-09T05:19:33.393Z,97247.39
2019-04-09T05:21:35.020Z,97250.41
2019-04-09T05:23:52.044Z,97256.35
2019-04-09T05:25:59.822Z,97256.14
2019-04-09T05:28:03.115Z,97257.31
2019-04-09T05:30:20.530Z,97259.06
2019-04-09T05:32:24.597Z,97268.11
2019-04-09T05:34:34.002Z,97267.45
2019-04-09T05:36:36.235Z,97269.30
2019-04-09T05:38:37.857Z,97270.60
2019-04-09T05:40:50.244Z,97275.04
2019-04-09T05:42:55.318Z,97275.03
2019-04-09T05:45:01.345Z,97278.77
2019-04-09T05:47:12.387Z,97278.78
2019-04-09T05:49:15.975Z,97274.55
2019-04-09T05:51:23.466Z,97274.22
2019-04-09T05:53:30.383Z,97279.34
2019-04-09T05:55:49.389Z,97278.13
2019-04-09T05:58:05.509Z,97282.06
2019-04-09T06:00:10.131Z,97282.16
2019-04-09T06:02:13.538Z,97283.56
2019-04-09T06:04:20.304Z,97283.14
2019-04-09T06:06:33.887Z,97279.00
2019-04-09T06:08:41.009Z,97283.14
2019-04-09T06:10:43.094Z,97284.84
2019-04-09T06:12:44.985Z,97283.48
2019-04-09T06:14:45.964Z,97290.20
2019-04-09T06:16:48.305Z,97286.55
2019-04-09T06:18:50.196Z,97291.16
2019-04-09T06:20:52.061Z,97287.39
2019-04-09T06:22:52.630Z,97285.28
2019-04-09T06:24:54.240Z,97290.91
2019-04-09T06:26:56.989Z,97289.53
2019-04-09T06:28:57.544Z,97289.04
2019-04-09T06:31:00.043Z,97290.30
2019-04-09T06:33:01.688Z,97290.44
2019-04-09T06:35:03.472Z,97289.74
2019-04-09T06:37:16.497Z,97288.50
2019-04-09T06:39:20.773Z,97287.63
2019-04-09T06:41:33.170Z,97285.41
2019-04-09T06:43:44.596Z,97290.09
2019-04-09T06:45:48.016Z,97290.07
2019-04-09T06:47:55.376Z,97294.65
2019-04-09T06:50:01.316Z,97294.25
2019-04-09T06:52:02.632Z,97295.11
2019-04-09T06:54:04.046Z,97289.74
2019-04-09T06:56:07.277Z,97295.19
2019-04-09T06:58:14.252Z,97290.51
2019-04-09T07:00:21.943Z,97296.09
2019-04-09T07:02:24.604Z,97295.19
2019-04-09T07:04:26.245Z,97302.44
2019-04-09T07:06:32.581Z,97293.60
2019-04-09T07:08:39.716Z,97302.75
2019-04-09T07:11:10.661Z,97302.58
2019-04-09T07:13:18.463Z,97303.72
2019-04-09T07:15:22.049Z,97306.20
2019-04-09T07:17:24.523Z,97303.70
2019-04-09T07:19:41.706Z,97307.77
2019-04-09T07:22:01.121Z,97312.80
2019-04-09T07:24:08.280Z,97315.96
2019-04-09T07:26:25.623Z,97318.64
2019-04-09T07:28:33.859Z,97323.79
2019-04-09T07:30:36.358Z,97326.30
2019-04-09T07:32:42.602Z,97325.22
2019-04-09T07:35:02.323Z,97330.91
2019-04-09T07:37:18.653Z,97331.50
2019-04-09T07:39:23.557Z,97336.73
2019-04-09T07:41:32.877Z,97332.56
2019-04-09T07:43:49.500Z,97332.66
2019-04-09T07:45:53.788Z,97331.46
2019-04-09T07:47:57.144Z,97335.75
2019-04-09T07:50:16.012Z,97334.88
2019-04-09T07:52:22.302Z,97309.40
2019-04-09T07:54:21.853Z,97337.89
2019-04-09T07:56:38.965Z,97343.78
2019-04-09T07:58:43.113Z,97336.11
2019-04-09T08:00:47.851Z,97339.50
2019-04-09T08:02:53.230Z,97343.30
2019-04-09T08:05:11.449Z,97346.33
2019-04-09T08:07:19.494Z,97355.17
2019-04-09T08:09:23.157Z,97352.70
2019-04-09T08:11:27.820Z,97359.52
2019-04-09T08:13:33.622Z,97360.06
2019-04-09T08:15:38.770Z,97360.03
2019-04-09T08:17:50.344Z,97359.94
2019-04-09T08:20:06.939Z,97363.18
2019-04-09T08:22:10.511Z,97372.41
2019-04-09T08:24:22.775Z,97371.67
2019-04-09T08:26:41.615Z,97370.31
2019-04-09T08:28:44.308Z,97376.97
2019-04-09T08:30:51.598Z,97375.87
2019-04-09T08:33:13.408Z,97375.34
2019-04-09T08:35:18.284Z,97373.28
2019-04-09T08:37:21.973Z,97372.94
2019-04-09T08:39:25.193Z,97372.11
2019-04-09T08:41:28.649Z,97369.03
2019-04-09T08:43:47.986Z,97376.17
2019-04-09T08:45:55.508Z,97379.83
2019-04-09T08:48:01.596Z,97369.22
2019-04-09T08:50:18.845Z,97373.44
2019-04-09T08:52:24.015Z,97373.81
2019-04-09T08:54:31.465Z,97372.24
2019-04-09T08:56:36.612Z,97379.20
2019-04-09T08:58:35.563Z,97386.17
2019-04-09T09:01:18.947Z,97392.55
2019-04-09T09:02:48.678Z,97385.11
2019-04-09T09:04:54.096Z,97365.89
2019-04-09T09:07:05.214Z,97388.08
2019-04-09T09:09:10.612Z,97395.45
2019-04-09T09:11:11.751Z,97391.64
2019-04-09T09:13:29.708Z,97389.58
2019-04-09T09:15:33.304Z,97395.13
2019-04-09T09:17:46.199Z,97395.95
2019-04-09T09:19:44.164Z,97391.52
2019-04-09T09:21:49.392Z,97395.65
2019-04-09T09:23:58.377Z,97393.02
2019-04-09T09:26:05.334Z,97392.09
2019-04-09T09:28:05.712Z,97395.58
2019-04-09T09:30:08.159Z,97396.02
2019-04-09T09:32:11.275Z,97390.17
2019-04-09T09:34:19.730Z,97389.81
2019-04-09T09:36:20.883Z,97370.80
2019-04-09T09:38:39.271Z,97396.84
2019-04-09T09:40:45.819Z,97387.31
2019-04-09T09:43:05.709Z,97401.47
2019-04-09T09:45:12.469Z,97348.03
2019-04-09T09:49:33.078Z,97393.55
2019-04-09T09:51:50.096Z,97391.52
2019-04-09T09:54:07.332Z,97403.25
2019-04-09T09:56:12.808Z,97392.09
2019-04-09T09:58:21.264Z,97397.13
2019-04-09T10:00:22.067Z,97396.41
2019-04-09T10:02:34.425Z,97403.98
2019-04-09T10:04:51.112Z,97403.79
2019-04-09T10:06:53.699Z,97406.06
2019-04-09T10:09:08.544Z,97408.55
2019-04-09T10:11:25.794Z,97406.15
2019-04-09T10:13:42.316Z,97412.93
2019-04-09T10:15:57.106Z,97407.39
2019-04-09T10:20:34.972Z,97401.70
2019-04-09T10:22:33.882Z,97404.72
2019-04-09T10:24:40.370Z,97399.53
2019-04-09T10:26:48.370Z,97400.16
2019-04-09T10:28:48.347Z,97378.37
2019-04-09T10:30:55.266Z,97397.16
2019-04-09T10:32:56.456Z,97398.97
2019-04-09T10:34:59.386Z,97397.44
2019-04-09T10:37:19.670Z,97400.36
2019-04-09T10:39:22.763Z,97394.80
2019-04-09T10:41:34.404Z,97396.63
2019-04-09T10:43:45.170Z,97401.73
2019-04-09T10:46:00.588Z,97398.23
2019-04-09T10:48:16.312Z,97401.55
2019-04-09T10:50:20.011Z,97400.77
2019-04-09T10:52:24.610Z,97392.53
2019-04-09T10:54:24.322Z,97392.33
2019-04-09T10:56:29.480Z,97399.94
2019-04-09T10:58:46.317Z,97398.64
2019-04-09T11:00:54.509Z,97402.87
2019-04-09T11:03:10.429Z,97405.89
2019-04-09T11:05:17.527Z,97404.62
2019-04-09T11:07:17.212Z,97394.78
2019-04-09T11:09:34.797Z,97355.27
2019-04-09T11:11:48.041Z,97396.48
2019-04-09T11:13:49.061Z,97377.83
2019-04-09T11:16:05.974Z,97398.62
2019-04-09T11:18:10.685Z,97399.91
2019-04-09T11:20:13.536Z,97396.48
2019-04-09T11:22:32.911Z,97401.00
2019-04-09T11:24:40.246Z,97401.72
2019-04-09T11:26:45.346Z,97398.89
2019-04-09T11:28:50.108Z,97404.28
2019-04-09T11:31:08.325Z,97400.25
2019-04-09T11:33:12.749Z,97407.54
2019-04-09T11:35:16.427Z,97359.56
2019-04-09T11:37:18.161Z,97406.97
2019-04-09T11:39:22.369Z,97411.20
2019-04-09T11:41:39.133Z,97403.11
2019-04-09T11:43:46.725Z,97404.72
2019-04-09T11:45:48.140Z,97410.83
2019-04-09T11:48:05.648Z,97404.02
2019-04-09T11:50:10.199Z,97405.38
2019-04-09T11:52:12.262Z,97401.30
2019-04-09T11:54:19.245Z,97399.96
2019-04-09T11:56:22.091Z,97399.39
2019-04-09T11:58:27.662Z,97399.45
2019-04-09T12:00:28.538Z,97396.98
2019-04-09T12:02:34.857Z,97393.03
2019-04-09T12:04:56.233Z,97392.06
2019-04-09T12:07:11.511Z,97393.00
2019-04-09T12:09:24.197Z,97390.78
2019-04-09T12:11:43.660Z,97363.84
2019-04-09T12:14:06.752Z,97364.59
2019-04-09T12:16:09.020Z,97391.19
2019-04-09T12:18:28.077Z,97396.63
2019-04-09T12:20:44.651Z,97389.29
2019-04-09T12:23:01.525Z,97394.02
2019-04-09T12:25:16.492Z,97392.81
2019-04-09T12:27:33.016Z,97392.39
2019-04-09T12:29:53.248Z,97390.57
2019-04-09T12:32:16.377Z,97386.97
2019-04-09T12:34:13.753Z,97384.11
2019-04-09T12:36:20.733Z,97388.42
2019-04-09T12:38:30.052Z,97381.50
2019-04-09T12:40:44.688Z,97383.56
2019-04-09T12:42:51.736Z,97384.09
2019-04-09T12:45:08.759Z,97388.09
2019-04-09T12:47:15.702Z,97385.77
2019-04-09T12:49:18.981Z,97384.05
2019-04-09T12:51:35.359Z,97391.00
2019-04-09T12:53:54.596Z,97381.28
2019-04-09T12:56:11.010Z,97382.00
2019-04-09T12:58:14.627Z,97373.08
2019-04-09T13:00:21.875Z,97381.85
2019-04-09T13:02:32.789Z,97378.83
2019-04-09T13:04:48.227Z,97377.55
2019-04-09T13:07:04.605Z,97374.41
2019-04-09T13:09:22.422Z,97375.56
2019-04-09T13:11:38.423Z,97363.73
2019-04-09T13:13:57.680Z,97358.80
2019-04-09T13:16:05.188Z,97371.36
2019-04-09T13:18:19.503Z,97368.77
2019-04-09T13:20:20.333Z,97370.62
2019-04-09T13:22:41.722Z,97368.41
2019-04-09T13:24:55.143Z,97369.89
2019-04-09T13:27:00.524Z,97370.38
2019-04-09T13:29:05.020Z,97363.87
2019-04-09T13:31:11.501Z,97365.94
2019-04-09T13:33:23.927Z,97368.38
2019-04-09T13:35:30.288Z,97369.34
2019-04-09T13:37:41.093Z,97365.94
2019-04-09T13:39:57.465Z,97363.88
2019-04-09T13:42:00.495Z,97364.77
2019-04-09T13:44:07.603Z,97363.81
2019-04-09T13:46:09.199Z,97361.20
2019-04-09T13:48:14.332Z,97359.55
2019-04-09T13:50:32.966Z,97353.45
2019-04-09T13:52:38.230Z,97353.36
2019-04-09T13:54:39.675Z,97348.27
2019-04-09T13:56:41.085Z,97340.89
2019-04-09T13:58:42.014Z,97346.03
2019-04-09T14:00:43.667Z,97349.12
2019-04-09T14:03:02.235Z,97347.65
2019-04-09T14:04:59.829Z,97347.05
2019-04-09T14:07:01.474Z,97346.61
2019-04-09T14:09:03.664Z,97318.53
2019-04-09T14:11:04.567Z,97344.10
2019-04-09T14:13:06.171Z,97350.81
2019-04-09T14:15:07.799Z,97349.19
2019-04-09T14:17:09.417Z,97347.36
2019-04-09T14:19:11.607Z,97346.95
2019-04-09T14:21:12.711Z,97351.39
2019-04-09T14:23:15.348Z,97346.56
2019-04-09T14:25:16.907Z,97345.16
2019-04-09T14:27:28.178Z,97348.70
2019-04-09T14:29:19.293Z,97352.36
2019-04-09T14:31:22.027Z,97349.72
2019-04-09T14:33:22.799Z,97349.41
2019-04-09T14:35:24.422Z,97348.50
2019-04-09T14:37:26.775Z,97356.87
2019-04-09T14:39:27.792Z,97352.80
2019-04-09T14:41:30.347Z,97349.13
2019-04-09T14:43:31.070Z,97347.98
2019-04-09T14:45:32.692Z,97345.69
2019-04-09T14:47:34.280Z,97350.96
2019-04-09T14:49:35.894Z,97349.94
2019-04-09T14:51:38.001Z,97338.23
2019-04-09T14:53:39.225Z,97345.98
2019-04-09T14:55:40.872Z,97338.72
2019-04-09T14:57:43.053Z,97346.70
2019-04-09T14:59:44.438Z,97346.45
2019-04-09T15:01:45.844Z,97343.48
2019-04-09T15:03:48.115Z,97347.34
2019-04-09T15:05:49.591Z,97347.23
2019-04-09T15:07:50.759Z,97340.25
2019-04-09T15:09:52.470Z,97341.08
2019-04-09T15:11:54.909Z,97337.55
2019-04-09T15:13:55.863Z,97337.23
2019-04-09T15:15:57.450Z,97346.19
2019-04-09T15:18:00.093Z,97346.41
2019-04-09T15:20:00.712Z,97348.22
2019-04-09T15:22:02.344Z,97340.91
2019-04-09T15:24:03.922Z,97339.53
2019-04-09T15:26:05.524Z,97346.96
2019-04-09T15:28:07.166Z,97337.94
2019-04-09T15:30:08.784Z,97337.98
2019-04-09T15:32:10.548Z,97327.08
2019-04-09T15:34:12.045Z,97337.05
2019-04-09T15:36:13.639Z,97336.98
2019-04-09T15:38:15.288Z,97336.08
2019-04-09T15:40:17.355Z,97336.56
2019-04-09T15:42:18.591Z,97339.34
2019-04-09T15:44:23.605Z,97340.52
2019-04-09T15:46:21.846Z,97334.64
2019-04-09T15:48:44.797Z,97335.72
2019-04-09T15:50:46.622Z,97339.66
2019-04-09T15:52:49.077Z,97345.14
2019-04-09T15:54:49.938Z,97343.22
2019-04-09T15:56:51.640Z,97341.20
2019-04-09T15:58:53.345Z,97337.11
2019-04-09T16:00:54.954Z,97342.36
2019-04-09T16:02:56.708Z,97334.80
2019-04-09T16:04:58.793Z,97344.71
2019-04-09T16:06:59.948Z,97343.58
2019-04-09T16:09:02.360Z,97344.04
2019-04-09T16:11:04.090Z,97344.17
2019-04-09T16:13:05.859Z,97344.66
2019-04-09T16:15:06.592Z,97349.44
2019-04-09T16:17:08.753Z,97350.30
2019-04-09T16:19:10.681Z,97346.13
2019-04-09T16:21:11.607Z,97353.80
2019-04-09T16:23:13.227Z,97349.08
2019-04-09T16:25:14.837Z,97355.89
2019-04-09T16:27:17.809Z,97358.45
2019-04-09T16:29:22.073Z,97355.03
2019-04-09T16:31:21.051Z,97363.98
2019-04-09T16:33:23.776Z,97360.64
2019-04-09T16:35:25.201Z,97361.10
2019-04-09T16:37:27.292Z,97367.52
2019-04-09T16:39:28.289Z,97366.31
2019-04-09T16:41:29.925Z,97370.22
2019-04-09T16:43:31.197Z,97368.08
2019-04-09T16:45:33.281Z,97371.50
2019-04-09T16:47:34.331Z,97373.67
2019-04-09T16:49:36.954Z,97373.67
2019-04-09T16:51:38.076Z,97378.69
2019-04-09T16:53:39.692Z,97384.33
2019-04-09T16:55:41.838Z,97373.44
2019-04-09T16:57:55.375Z,97380.10
2019-04-09T16:59:46.287Z,97384.17
2019-04-09T17:01:47.823Z,97386.27
2019-04-09T17:03:51.527Z,97386.27
2019-04-09T17:05:51.075Z,97393.66
2019-04-09T17:07:52.683Z,97398.62
2019-04-09T17:09:54.364Z,97400.20
2019-04-09T17:11:56.823Z,97403.27
2019-04-09T17:13:57.596Z,97401.95
2019-04-09T17:16:00.110Z,97399.11
2019-04-09T17:18:01.951Z,97404.64
2019-04-09T17:20:02.533Z,97404.48
2019-04-09T17:22:04.121Z,97405.05
2019-04-09T17:24:06.848Z,97403.30
2019-04-09T17:26:07.514Z,97409.04
2019-04-09T17:28:10.008Z,97411.88
2019-04-09T17:30:10.712Z,97419.38
2019-04-09T17:32:12.314Z,97417.33
2019-04-09T17:34:25.527Z,97363.21
2019-04-09T17:36:15.621Z,97423.68
2019-04-09T17:38:17.761Z,97426.62
2019-04-09T17:40:19.538Z,97428.20
2019-04-09T17:42:21.672Z,97430.39
2019-04-09T17:44:22.198Z,97433.82
2019-04-09T17:46:23.848Z,97433.48
2019-04-09T17:48:26.263Z,97439.25
2019-04-09T17:50:28.263Z,97436.54
2019-04-09T17:52:29.036Z,97438.05
2019-04-09T17:54:30.634Z,97443.26
2019-04-09T17:56:32.225Z,97439.87
2019-04-09T17:58:33.850Z,97449.31
2019-04-09T18:00:35.485Z,97450.43
2019-04-09T18:02:37.084Z,97449.59
2019-04-09T18:04:46.589Z,97450.03
2019-04-09T18:06:40.425Z,97412.23
2019-04-09T18:08:42.922Z,97455.55
2019-04-09T18:10:43.709Z,97460.41
2019-04-09T18:12:45.329Z,97459.22
2019-04-09T18:14:47.161Z,97460.68
2019-04-09T18:16:48.877Z,97465.47
2019-04-09T18:18:50.517Z,97467.76
2019-04-09T18:20:52.184Z,97469.26
2019-04-09T18:22:53.906Z,97471.92
2019-04-09T18:24:55.515Z,97470.09
2019-04-09T18:26:57.117Z,97464.87
2019-04-09T18:28:59.117Z,97472.34
2019-04-09T18:31:00.719Z,97470.17
2019-04-09T18:33:03.459Z,97467.51
2019-04-09T18:35:06.447Z,97464.42
2019-04-09T18:37:05.873Z,97464.53
2019-04-09T18:39:07.670Z,97469.75
2019-04-09T18:41:10.261Z,97432.05
2019-04-09T18:43:10.756Z,97475.02
2019-04-09T18:45:12.701Z,97469.21
2019-04-09T18:47:14.320Z,97473.18
2019-04-09T18:49:17.044Z,97473.28
2019-04-09T18:51:17.610Z,97474.80
2019-04-09T18:53:19.228Z,97475.77
2019-04-09T18:55:20.857Z,97482.36
2019-04-09T18:57:22.488Z,97479.48
2019-04-09T18:59:24.297Z,97477.69
2019-04-09T19:01:26.954Z,97484.09
2019-04-09T19:03:28.424Z,97488.09
2019-04-09T19:05:30.020Z,97484.70
2019-04-09T19:07:32.466Z,97489.70
2019-04-09T19:09:34.477Z,97487.20
2019-04-09T19:11:35.984Z,97487.98
2019-04-09T19:13:37.432Z,97489.70
2019-04-09T19:15:39.184Z,97489.31
2019-04-09T19:17:39.983Z,97493.05
2019-04-09T19:19:42.594Z,97490.61
2019-04-09T19:21:43.324Z,97484.31
2019-04-09T19:23:45.025Z,97494.66
2019-04-09T19:25:46.625Z,97489.42
2019-04-09T19:27:48.572Z,97488.98
2019-04-09T19:29:51.069Z,97494.09
2019-04-09T19:31:52.025Z,97488.55
2019-04-09T19:33:53.704Z,97487.92
2019-04-09T19:35:55.559Z,97490.09
2019-04-09T19:37:57.091Z,97496.08
2019-04-09T19:40:05.530Z,97489.78
2019-04-09T19:42:13.771Z,97492.02
2019-04-09T19:44:08.505Z,97496.28
2019-04-09T19:46:10.658Z,97492.23
2019-04-09T19:48:12.278Z,97494.33
2019-04-09T19:50:13.916Z,97491.77
2019-04-09T19:52:15.533Z,97491.65
2019-04-09T19:54:17.152Z,97487.92
2019-04-09T19:56:19.408Z,97488.44
2019-04-09T19:58:21.031Z,97483.76
2019-04-09T20:00:22.138Z,97482.75
2019-04-09T20:02:24.847Z,97488.22
2019-04-09T20:04:25.458Z,97480.55
2019-04-09T20:06:27.886Z,97479.66
2019-04-09T20:08:29.308Z,97463.72
2019-04-09T20:10:40.341Z,97484.19
2019-04-09T20:12:41.963Z,97480.89
2019-04-09T20:14:43.617Z,97480.35
2019-04-09T20:16:45.549Z,97486.96
2019-04-09T20:18:48.090Z,97482.59
2019-04-09T20:20:49.918Z,97482.02
2019-04-09T20:22:50.368Z,97485.91
2019-04-09T20:24:53.191Z,97485.38
2019-04-09T20:26:54.756Z,97490.52
2019-04-09T20:28:55.376Z,97472.62
2019-04-09T20:30:56.967Z,97481.09
2019-04-09T20:32:59.112Z,97479.52
2019-04-09T20:35:06.093Z,97481.49
2019-04-09T20:37:03.182Z,97483.56
2019-04-09T20:39:03.889Z,97475.92
2019-04-09T20:41:05.684Z,97482.23
2019-04-09T20:43:07.698Z,97480.03
2019-04-09T20:45:08.930Z,97477.06
2019-04-09T20:47:12.835Z,97483.11
2019-04-09T20:49:14.801Z,97483.52
2019-04-09T20:51:15.393Z,97481.09
2019-04-09T20:53:17.817Z,97478.13
2019-04-09T20:55:19.831Z,97481.22
2019-04-09T20:57:20.288Z,97480.16
2019-04-09T20:59:43.573Z,97481.05
2019-04-09T21:01:45.132Z,97482.58
2019-04-09T21:03:57.968Z,97470.70
2019-04-09T21:05:55.470Z,97474.34
2019-04-09T21:07:50.923Z,97472.11
2019-04-09T21:09:52.342Z,97476.41
2019-04-09T21:11:54.860Z,97473.92
2019-04-09T21:13:55.840Z,97475.88
2019-04-09T21:15:57.801Z,97466.27
2019-04-09T21:17:58.895Z,97469.19
2019-04-09T21:20:00.483Z,97468.98
2019-04-09T21:22:02.081Z,97468.66
2019-04-09T21:24:04.719Z,97463.74
2019-04-09T21:26:05.385Z,97464.75
2019-04-09T21:28:06.993Z,97460.19
2019-04-09T21:30:08.585Z,97464.14
2019-04-09T21:32:10.482Z,97461.25
2019-04-09T21:34:11.848Z,97458.85
2019-04-09T21:36:15.783Z,97458.91
2019-04-09T21:38:15.802Z,97464.12
2019-04-09T21:40:19.822Z,97459.05
2019-04-09T21:42:18.494Z,97461.27
2019-04-09T21:44:20.680Z,97462.59
2019-04-09T21:46:21.736Z,97460.14
2019-04-09T21:48:23.912Z,97461.06
2019-04-09T21:50:25.502Z,97459.38
2019-04-09T21:52:27.096Z,97463.30
2019-04-09T21:54:28.672Z,97466.36
2019-04-09T21:56:30.259Z,97465.52
2019-04-09T21:58:32.931Z,97467.26
2019-04-09T22:00:36.395Z,97461.72
2019-04-09T22:02:38.548Z,97463.47
2019-04-09T22:04:39.663Z,97467.41
2019-04-09T22:06:41.937Z,97460.70
2019-04-09T22:08:43.859Z,97461.16
2019-04-09T22:10:45.499Z,97459.45
2019-04-09T22:12:46.286Z,97467.55
2019-04-09T22:14:50.388Z,97460.78
2019-04-09T22:16:49.734Z,97459.98
2019-04-09T22:18:52.215Z,97464.77
2019-04-09T22:20:54.069Z,97463.87
2019-04-09T22:22:55.709Z,97466.78
2019-04-09T22:24:56.526Z,97465.81
2019-04-09T22:26:58.319Z,97469.16
2019-04-09T22:29:00.876Z,97461.54
2019-04-09T22:31:01.513Z,97461.47
2019-04-09T22:33:08.502Z,97458.52
2019-04-09T22:35:04.785Z,97457.32
2019-04-09T22:37:06.988Z,97461.66
2019-04-09T22:39:08.538Z,97459.98
2019-04-09T22:41:09.805Z,97456.63
2019-04-09T22:43:11.357Z,97460.05
2019-04-09T22:45:13.390Z,97459.19
2019-04-09T22:47:15.311Z,97452.39
2019-04-09T22:49:17.155Z,97449.84
2019-04-09T22:51:18.846Z,97455.89
2019-04-09T22:53:20.566Z,97455.28
2019-04-09T22:55:22.358Z,97447.68
2019-04-09T22:57:24.078Z,97455.69
2019-04-09T22:59:25.814Z,97451.92
2019-04-09T23:01:33.074Z,97451.85
2019-04-09T23:03:34.670Z,97462.48
2019-04-09T23:05:52.012Z,97455.36
2019-04-09T23:07:56.813Z,97460.82
2019-04-09T23:09:59.431Z,97463.05
2019-04-09T23:12:01.426Z,97460.98
2019-04-09T23:14:02.502Z,97460.55
2019-04-09T23:16:04.105Z,97459.73
2019-04-09T23:18:05.736Z,97462.73
2019-04-09T23:20:07.340Z,97455.46
2019-04-09T23:22:08.978Z,97460.22
2019-04-09T23:24:11.312Z,97458.19
2019-04-09T23:26:13.073Z,97458.22
2019-04-09T23:28:14.839Z,97462.11
2019-04-09T23:30:15.500Z,97459.16
2019-04-09T23:32:17.224Z,97454.39
2019-04-09T23:34:19.657Z,97450.62
2019-04-09T23:36:21.558Z,97411.27
2019-04-09T23:38:22.066Z,97453.55
2019-04-09T23:40:23.652Z,97451.68
2019-04-09T23:42:25.316Z,97456.80
2019-04-09T23:44:33.241Z,97456.86
2019-04-09T23:46:29.597Z,97456.88
2019-04-09T23:48:30.319Z,97459.44
2019-04-09T23:50:31.901Z,97461.13
2019-04-09T23:52:34.430Z,97461.02
2019-04-09T23:54:36.146Z,97456.69
2019-04-09T23:56:37.869Z,97462.30
2019-04-09T23:58:39.601Z,97453.91
